CheckWX is a tool to help pilots better visualize weather data.  It is not intended as a substitute for an official pre-flight weather briefing.

03:30:56 UTC

KLEB METAR
Lebanon Municipal Airport
Lebanon, New Hampshire, USA
Current

38 mins ago

KLEB 240253Z AUTO 28005KT 10SM CLR M01/M11 A2997 RMK AO2 SLP156 T10111106 51020
Observed
Mar-24 @ 02:53 UTC
Wind
  • 280° at 5 KTS
Visibility
10 SM
Flight Rules
VFR
Cloud Levels
  • Clear skies
Temperature
-1°C / 30°F
Dewpoint
-11°C / 12°F
Humidity
47%
Altimeter
29.97" Hg
Pressure
1015.6 hPa
Previous

2 hours ago

KLEB 240153Z 29004KT 10SM CLR 00/M11 A2995 RMK AO2 SLP152 T00001111
Observed
Mar-24 @ 01:53 UTC
Wind
  • 290° at 4 KTS
Visibility
10 SM
Flight Rules
VFR
Cloud Levels
  • Clear skies
Temperature
C / 32°F
Dewpoint
-11°C / 12°F
Humidity
44%
Altimeter
29.95" Hg
Pressure
1015.2 hPa
Previous

3 hours ago

KLEB 240053Z 31005KT 10SM CLR 01/M11 A2994 RMK AO2 SLP147 T00061111
Observed
Mar-24 @ 00:53 UTC
Wind
  • 310° at 5 KTS
Visibility
10 SM
Flight Rules
VFR
Cloud Levels
  • Clear skies
Temperature
C / 34°F
Dewpoint
-11°C / 12°F
Humidity
41%
Altimeter
29.94" Hg
Pressure
1014.7 hPa